Time;durP1;ratioP1;P1;durP2;ratioP2;P2;SDS_P1;SDS_P2;PMS_P1;PMS_P2;Temp;Humidity;BMP_temperature;BMP_pressure;BME280_temperature;BME280_humidity;BME280_pressure;Samples;Min_cycle;Max_cycle;Signal;HPM_P1;HPM_P2
2022/01/11 00:01:42;;;;;;;63.13;28.15;;;;;;;-1.84;82.91;102767.94;5059546;28;20258;-49
2022/01/11 00:04:10;;;;;;;56.75;26.67;;;;;;;-1.84;83.12;102773.03;5060566;28;20212;-50
2022/01/11 00:06:41;;;;;;;55.30;25.33;;;;;;;-1.81;83.20;102778.34;5063356;28;20052;-51
2022/01/11 00:09:20;;;;;;;60.63;26.48;;;;;;;-1.78;82.89;102783.66;5063941;28;20055;-49
2022/01/11 00:11:47;;;;;;;51.00;23.83;;;;;;;-1.74;83.32;102780.56;5062784;28;20060;-50
2022/01/11 00:14:15;;;;;;;55.22;24.05;;;;;;;-1.73;83.06;102783.22;5061980;28;20056;-49
2022/01/11 00:16:42;;;;;;;50.35;25.42;;;;;;;-1.69;82.82;102781.78;5063026;28;20045;-50
2022/01/11 00:19:10;;;;;;;51.75;24.58;;;;;;;-1.68;82.97;102781.00;5066887;28;20055;-51
2022/01/11 00:21:44;;;;;;;52.42;22.92;;;;;;;-1.64;83.33;102788.09;5060500;28;20397;-53
2022/01/11 00:24:29;;;;;;;52.05;23.35;;;;;;;-1.60;82.98;102779.91;5062718;28;20060;-50
2022/01/11 00:26:58;;;;;;;46.28;22.27;;;;;;;-1.58;83.05;102783.44;5062632;28;20056;-51
2022/01/11 00:29:25;;;;;;;48.92;24.80;;;;;;;-1.56;82.87;102781.00;5062369;28;20389;-53
2022/01/11 00:31:54;;;;;;;50.15;23.98;;;;;;;-1.55;82.84;102786.25;5062007;28;20051;-51
2022/01/11 00:34:23;;;;;;;51.60;24.67;;;;;;;-1.54;82.91;102784.59;5061190;28;20686;-50
2022/01/11 00:36:50;;;;;;;49.38;25.38;;;;;;;-1.54;82.43;102785.47;5065496;28;20051;-50
2022/01/11 00:39:19;;;;;;;49.58;22.95;;;;;;;-1.51;82.58;102788.22;5064291;28;20474;-52
2022/01/11 00:41:46;;;;;;;47.03;23.60;;;;;;;-1.49;82.65;102786.69;5064673;28;20052;-52
2022/01/11 00:44:13;;;;;;;49.80;23.55;;;;;;;-1.49;82.48;102784.16;5065237;28;20057;-51
2022/01/11 00:46:41;;;;;;;51.20;24.13;;;;;;;-1.46;82.46;102789.44;5062952;28;20052;-52
2022/01/11 00:49:08;;;;;;;45.38;22.63;;;;;;;-1.45;82.46;102791.22;5060392;28;20167;-48
2022/01/11 00:51:35;;;;;;;52.83;24.33;;;;;;;-1.43;82.63;102789.66;5063840;28;20470;-50
2022/01/11 00:54:03;;;;;;;49.50;23.50;;;;;;;-1.40;82.63;102794.09;5063301;28;20048;-49
2022/01/11 00:56:32;;;;;;;47.47;23.55;;;;;;;-1.38;82.10;102793.44;5064545;28;20114;-49
2022/01/11 00:58:59;;;;;;;47.00;22.08;;;;;;;-1.37;82.64;102800.28;5064834;28;20110;-49
2022/01/11 01:01:27;;;;;;;50.25;22.17;;;;;;;-1.35;82.57;102796.19;5065256;28;20052;-51
2022/01/11 01:03:54;;;;;;;50.55;24.40;;;;;;;-1.32;82.55;102803.16;5061186;28;20044;-51
2022/01/11 01:06:21;;;;;;;39.47;20.17;;;;;;;-1.30;81.97;102804.16;5063166;28;20056;-52
2022/01/11 01:08:49;;;;;;;45.05;22.10;;;;;;;-1.29;82.11;102806.81;5061539;28;20450;-51
2022/01/11 01:11:16;;;;;;;41.10;18.77;;;;;;;-1.27;82.31;102802.72;5063887;28;20048;-51
2022/01/11 01:13:44;;;;;;;41.78;21.92;;;;;;;-1.23;81.96;102808.03;5061003;28;20473;-50
2022/01/11 01:16:12;;;;;;;43.40;20.55;;;;;;;-1.21;82.29;102801.38;5059344;28;20063;-50
2022/01/11 01:18:39;;;;;;;39.95;19.40;;;;;;;-1.19;81.85;102799.84;5063229;28;20063;-48
2022/01/11 01:21:06;;;;;;;40.72;20.60;;;;;;;-1.17;82.03;102803.38;5061858;28;20048;-51
2022/01/11 01:23:34;;;;;;;43.65;19.30;;;;;;;-1.14;81.70;102806.16;5059901;28;20044;-49
2022/01/11 01:26:02;;;;;;;43.03;20.90;;;;;;;-1.13;81.78;102811.34;5060515;28;20060;-51
2022/01/11 01:28:30;;;;;;;45.97;21.90;;;;;;;-1.11;81.93;102803.81;5062349;28;20401;-50
2022/01/11 01:31:01;;;;;;;42.55;21.45;;;;;;;-1.10;81.75;102805.59;5063689;28;20051;-50
2022/01/11 01:33:28;;;;;;;44.00;21.15;;;;;;;-1.10;81.79;102811.56;5060826;28;20154;-49
2022/01/11 01:36:01;;;;;;;40.80;20.15;;;;;;;-1.09;81.81;102817.53;5060054;28;20057;-51
2022/01/11 01:38:29;;;;;;;39.03;19.40;;;;;;;-1.07;81.66;102816.00;5059594;28;20040;-50
2022/01/11 01:41:02;;;;;;;35.83;19.02;;;;;;;-1.06;81.76;102815.22;5058152;28;20060;-51
2022/01/11 01:43:30;;;;;;;41.25;21.27;;;;;;;-1.05;81.94;102814.44;5060575;28;20052;-50
2022/01/11 01:46:00;;;;;;;36.83;18.23;;;;;;;-1.03;81.64;102815.47;5059800;28;20079;-48
2022/01/11 01:48:29;;;;;;;35.08;18.83;;;;;;;-1.03;81.88;102815.47;5060997;28;20052;-51
2022/01/11 01:50:56;;;;;;;38.35;18.55;;;;;;;-1.00;81.80;102823.31;5060440;28;20060;-49
2022/01/11 01:53:24;;;;;;;36.17;17.92;;;;;;;-0.99;81.66;102820.00;5059594;28;20083;-53
2022/01/11 01:55:51;;;;;;;35.22;16.35;;;;;;;-0.96;81.88;102825.31;5064762;28;20063;-50
2022/01/11 01:58:18;;;;;;;34.88;17.55;;;;;;;-0.94;82.00;102823.75;5061754;28;20048;-54
2022/01/11 02:00:53;;;;;;;28.65;16.70;;;;;;;-0.92;81.74;102824.75;5059209;28;20060;-52
2022/01/11 02:03:26;;;;;;;36.53;18.52;;;;;;;-0.90;81.74;102817.22;5060430;28;20704;-50
2022/01/11 02:05:55;;;;;;;35.58;18.88;;;;;;;-0.89;81.73;102812.22;5063405;28;20132;-48
2022/01/11 02:08:23;;;;;;;36.90;18.35;;;;;;;-0.87;81.68;102820.88;5062132;28;20098;-52
2022/01/11 02:10:51;;;;;;;31.98;15.35;;;;;;;-0.87;81.93;102815.78;5059254;28;20048;-51
2022/01/11 02:13:18;;;;;;;36.00;17.92;;;;;;;-0.86;81.90;102814.09;5058573;28;20077;-52
2022/01/11 02:15:46;;;;;;;37.40;17.30;;;;;;;-0.84;82.08;102816.00;5060843;28;21161;-52
2022/01/11 02:18:15;;;;;;;33.65;15.73;;;;;;;-0.83;81.94;102815.22;5062635;28;20101;-50
2022/01/11 02:20:45;;;;;;;29.00;15.50;;;;;;;-0.82;81.96;102819.53;5061272;28;20064;-50
2022/01/11 02:23:13;;;;;;;38.92;17.73;;;;;;;-0.80;82.20;102823.06;5057783;28;20136;-53
2022/01/11 02:25:40;;;;;;;32.00;17.25;;;;;;;-0.77;82.02;102820.72;5059043;28;20059;-49
2022/01/11 02:28:09;;;;;;;32.85;15.77;;;;;;;-0.76;82.18;102819.94;5057904;28;20059;-53
2022/01/11 02:30:37;;;;;;;28.63;15.40;;;;;;;-0.73;81.99;102820.16;5059925;28;20509;-49
2022/01/11 02:33:10;;;;;;;29.95;18.10;;;;;;;-0.72;82.21;102827.03;5059695;28;20044;-50
2022/01/11 02:35:37;;;;;;;32.53;17.55;;;;;;;-0.70;81.94;102820.38;5063670;28;20113;-48
2022/01/11 02:38:06;;;;;;;31.83;16.42;;;;;;;-0.67;81.95;102828.25;5058895;28;20052;-49
2022/01/11 02:40:33;;;;;;;27.00;16.33;;;;;;;-0.67;82.10;102837.53;5057982;28;20945;-54
2022/01/11 02:43:00;;;;;;;29.48;16.92;;;;;;;-0.67;82.11;102830.78;5058685;28;20057;-49
2022/01/11 02:45:27;;;;;;;31.00;16.40;;;;;;;-0.64;82.21;102830.13;5061074;28;20122;-51
2022/01/11 02:47:54;;;;;;;31.77;18.20;;;;;;;-0.61;82.28;102829.44;5062112;28;20067;-50
2022/01/11 02:50:22;;;;;;;30.25;16.58;;;;;;;-0.63;82.17;102820.03;5059326;28;20098;-50
2022/01/11 02:52:49;;;;;;;31.88;17.00;;;;;;;-0.60;82.15;102831.22;5058443;28;20044;-51
2022/01/11 02:55:17;;;;;;;34.63;15.45;;;;;;;-0.60;82.36;102831.22;5059120;28;20053;-50
2022/01/11 02:57:45;;;;;;;27.58;15.00;;;;;;;-0.58;82.25;102829.66;5061714;28;20052;-49
2022/01/11 03:00:16;;;;;;;29.98;14.68;;;;;;;-0.57;82.22;102833.97;5056880;28;20052;-49
2022/01/11 03:02:43;;;;;;;35.00;16.60;;;;;;;-0.57;82.18;102836.53;5063090;28;20056;-50
2022/01/11 03:05:12;;;;;;;27.02;14.60;;;;;;;-0.56;82.08;102833.19;5059836;28;20054;-52
2022/01/11 03:07:40;;;;;;;30.50;16.55;;;;;;;-0.56;81.97;102839.19;5056789;28;20048;-52
2022/01/11 03:10:16;;;;;;;31.38;15.73;;;;;;;-0.55;82.27;102830.75;5060125;28;20045;-51
2022/01/11 03:12:45;;;;;;;32.00;15.32;;;;;;;-0.55;82.43;102834.97;5056885;28;20130;-52
2022/01/11 03:15:13;;;;;;;31.10;16.00;;;;;;;-0.57;81.92;102831.44;5057691;28;20177;-53
2022/01/11 03:17:41;;;;;;;34.95;16.17;;;;;;;-0.60;81.96;102836.31;5056919;28;20055;-48
2022/01/11 03:20:10;;;;;;;35.53;18.45;;;;;;;-0.63;81.97;102837.88;5056755;28;20072;-49
2022/01/11 03:22:38;;;;;;;34.53;17.67;;;;;;;-0.65;81.95;102836.00;5060684;28;20074;-51
2022/01/11 03:25:07;;;;;;;34.10;17.58;;;;;;;-0.69;81.93;102831.47;5059830;28;20135;-50
2022/01/11 03:27:34;;;;;;;35.00;17.48;;;;;;;-0.73;81.92;102832.91;5061458;28;20109;-50
2022/01/11 03:30:03;;;;;;;35.72;17.85;;;;;;;-0.76;81.61;102830.13;5060797;28;20097;-49
2022/01/11 03:32:30;;;;;;;35.08;17.45;;;;;;;-0.80;81.44;102833.25;5057097;28;20044;-51
2022/01/11 03:34:57;;;;;;;37.22;17.27;;;;;;;-0.86;81.62;102832.81;5059024;28;20089;-48
2022/01/11 03:37:24;;;;;;;35.35;19.55;;;;;;;-0.90;81.37;102838.47;5058968;28;20040;-50
2022/01/11 03:39:51;;;;;;;34.33;17.30;;;;;;;-0.96;81.18;102845.66;5060085;28;20037;-49
2022/01/11 03:42:19;;;;;;;33.85;18.42;;;;;;;-1.02;81.27;102840.16;5056698;28;20048;-52
2022/01/11 03:44:46;;;;;;;35.47;17.80;;;;;;;-1.08;81.19;102844.75;5056428;28;20198;-50
2022/01/11 03:47:14;;;;;;;34.03;17.30;;;;;;;-1.18;81.52;102843.22;5057296;28;20131;-50
2022/01/11 03:49:42;;;;;;;36.95;18.17;;;;;;;-1.22;81.41;102850.50;5057770;28;20446;-52
2022/01/11 03:52:09;;;;;;;37.28;18.27;;;;;;;-1.27;82.18;102848.53;5059049;28;20060;-50
2022/01/11 03:54:51;;;;;;;35.22;16.27;;;;;;;-1.30;81.59;102853.38;5056750;28;20060;-54
2022/01/11 03:57:18;;;;;;;36.53;17.40;;;;;;;-1.35;81.93;102849.63;5055918;28;20060;-50
2022/01/11 03:59:45;;;;;;;32.30;16.23;;;;;;;-1.38;81.74;102849.41;5059788;28;20052;-48
2022/01/11 04:02:14;;;;;;;30.50;14.95;;;;;;;-1.43;81.67;102847.28;5057716;28;20056;-50
2022/01/11 04:04:42;;;;;;;36.70;16.63;;;;;;;-1.49;82.28;102841.75;5059366;28;20569;-51
2022/01/11 04:07:09;;;;;;;32.75;16.38;;;;;;;-1.54;82.19;102841.44;5056218;28;20045;-52
2022/01/11 04:09:36;;;;;;;26.83;13.40;;;;;;;-1.58;82.01;102839.41;5056542;28;20398;-52
2022/01/11 04:12:04;;;;;;;31.13;16.60;;;;;;;-1.61;82.27;102844.25;5058917;28;20114;-53
2022/01/11 04:14:31;;;;;;;27.17;14.82;;;;;;;-1.67;82.12;102844.69;5061482;28;20402;-49
2022/01/11 04:16:58;;;;;;;25.00;14.20;;;;;;;-1.72;82.27;102846.00;5057784;28;20052;-50
2022/01/11 04:19:27;;;;;;;27.85;14.40;;;;;;;-1.79;82.60;102847.97;5059684;28;20044;-50
2022/01/11 04:21:54;;;;;;;31.55;15.57;;;;;;;-1.84;82.83;102846.75;5062669;28;20439;-50
2022/01/11 04:24:21;;;;;;;29.27;14.48;;;;;;;-1.87;82.83;102844.84;5063431;28;20066;-52
2022/01/11 04:26:48;;;;;;;31.20;14.98;;;;;;;-1.93;82.84;102842.75;5055417;28;20048;-48
2022/01/11 04:29:15;;;;;;;30.90;15.15;;;;;;;-1.97;83.12;102843.28;5058160;28;20775;-51
2022/01/11 04:31:42;;;;;;;29.80;15.65;;;;;;;-2.01;83.17;102846.38;5052582;28;20476;-53
2022/01/11 04:34:10;;;;;;;34.20;15.93;;;;;;;-2.03;83.38;102840.28;5055067;28;20061;-50
2022/01/11 04:36:39;;;;;;;29.15;15.50;;;;;;;-2.05;83.43;102838.41;5056048;28;20052;-50
2022/01/11 04:39:09;;;;;;;30.02;15.50;;;;;;;-2.07;83.76;102838.28;5057039;28;20055;-49
2022/01/11 04:41:37;;;;;;;30.00;15.60;;;;;;;-2.11;83.60;102841.31;5056555;28;20744;-50
2022/01/11 04:44:05;;;;;;;28.90;15.05;;;;;;;-2.15;83.64;102844.41;5058039;28;20190;-51
2022/01/11 04:46:32;;;;;;;28.65;14.48;;;;;;;-2.19;83.98;102834.78;5057231;28;20101;-52
2022/01/11 04:49:00;;;;;;;25.48;14.85;;;;;;;-2.22;84.04;102840.50;5058547;28;20044;-50
2022/01/11 04:51:28;;;;;;;28.77;15.27;;;;;;;-2.23;83.85;102835.31;5064069;28;20090;-49
2022/01/11 04:53:57;;;;;;;35.28;14.45;;;;;;;-2.26;83.75;102832.53;5061465;28;20056;-50
2022/01/11 04:56:25;;;;;;;27.80;13.73;;;;;;;-2.29;84.38;102837.38;5063050;28;20052;-48
2022/01/11 04:58:52;;;;;;;29.98;14.52;;;;;;;-2.33;84.03;102835.38;5062862;28;20055;-51
2022/01/11 05:01:19;;;;;;;26.65;13.30;;;;;;;-2.37;84.74;102836.81;5059801;28;20067;-52
2022/01/11 05:03:46;;;;;;;26.17;14.00;;;;;;;-2.40;85.14;102838.22;5058741;28;20059;-51
2022/01/11 05:06:14;;;;;;;28.50;14.25;;;;;;;-2.42;84.84;102839.75;5062465;28;20111;-54
2022/01/11 05:08:42;;;;;;;26.58;13.10;;;;;;;-2.45;85.46;102834.44;5061404;28;20048;-49
2022/01/11 05:11:11;;;;;;;29.35;14.68;;;;;;;-2.46;85.28;102837.75;5058943;28;20052;-52
2022/01/11 05:13:38;;;;;;;25.95;14.18;;;;;;;-2.47;85.49;102835.97;5056197;28;20052;-50
2022/01/11 05:16:06;;;;;;;22.83;12.77;;;;;;;-2.48;85.40;102839.28;5063004;28;20968;-53
2022/01/11 05:18:36;;;;;;;25.42;13.50;;;;;;;-2.49;85.37;102847.66;5063051;28;20060;-51
2022/01/11 05:21:03;;;;;;;25.40;13.95;;;;;;;-2.52;86.03;102845.78;5065066;28;20057;-54
2022/01/11 05:23:30;;;;;;;29.27;13.93;;;;;;;-2.51;85.89;102846.66;5062646;28;20183;-49
2022/01/11 05:25:57;;;;;;;30.30;13.73;;;;;;;-2.52;86.45;102849.97;5060652;28;20110;-50
2022/01/11 05:28:26;;;;;;;28.75;13.90;;;;;;;-2.53;86.64;102850.75;5065152;28;20056;-50
2022/01/11 05:30:53;;;;;;;26.52;14.43;;;;;;;-2.56;86.34;102857.34;5058751;28;20041;-50
2022/01/11 05:33:20;;;;;;;26.83;14.20;;;;;;;-2.56;86.99;102862.44;5058459;28;20055;-49
2022/01/11 05:35:48;;;;;;;27.60;14.38;;;;;;;-2.57;86.67;102860.66;5065081;28;20067;-51
2022/01/11 05:38:16;;;;;;;30.58;14.40;;;;;;;-2.53;87.07;102864.31;5060541;28;20057;-48
2022/01/11 05:40:43;;;;;;;29.40;14.43;;;;;;;-2.51;87.44;102862.78;5060328;28;20054;-51
2022/01/11 05:43:12;;;;;;;27.83;14.73;;;;;;;-2.48;87.48;102868.09;5059909;28;20068;-49
2022/01/11 05:45:40;;;;;;;25.40;13.45;;;;;;;-2.45;87.46;102867.47;5057126;28;20059;-49
2022/01/11 05:48:08;;;;;;;31.58;15.02;;;;;;;-2.44;87.48;102864.16;5057058;28;20064;-51
2022/01/11 05:50:37;;;;;;;30.20;14.82;;;;;;;-2.41;88.13;102872.00;5061160;28;20452;-49
2022/01/11 05:53:04;;;;;;;29.27;14.57;;;;;;;-2.39;88.13;102871.34;5060819;28;20049;-50
2022/01/11 05:55:32;;;;;;;29.58;14.57;;;;;;;-2.36;88.27;102876.66;5058391;28;20040;-51
2022/01/11 05:57:59;;;;;;;31.08;14.98;;;;;;;-2.32;88.24;102871.06;5058969;28;20401;-51
2022/01/11 06:00:26;;;;;;;30.00;15.38;;;;;;;-2.30;88.16;102871.19;5057973;28;20055;-49
2022/01/11 06:02:55;;;;;;;34.28;15.00;;;;;;;-2.27;88.58;102876.50;5057977;28;20136;-49
2022/01/11 06:05:23;;;;;;;27.75;13.63;;;;;;;-2.24;88.60;102884.34;5060913;28;20044;-49
2022/01/11 06:07:51;;;;;;;28.80;15.07;;;;;;;-2.23;88.65;102873.44;5059370;28;20060;-52
2022/01/11 06:10:19;;;;;;;28.05;14.80;;;;;;;-2.21;88.49;102887.13;5065290;28;20055;-47
2022/01/11 06:12:46;;;;;;;30.23;14.80;;;;;;;-2.18;88.98;102883.94;5057890;28;20063;-51
2022/01/11 06:15:13;;;;;;;28.33;13.95;;;;;;;-2.14;88.71;102889.38;5058463;28;20079;-51
2022/01/11 06:17:40;;;;;;;29.95;14.27;;;;;;;-2.10;88.92;102890.50;5060162;28;20057;-49
2022/01/11 06:20:11;;;;;;;33.05;17.40;;;;;;;-2.07;89.02;102889.09;5060531;28;20044;-49
2022/01/11 06:22:38;;;;;;;29.05;14.90;;;;;;;-2.05;89.01;102887.56;5062049;28;20066;-48
2022/01/11 06:25:07;;;;;;;33.70;16.33;;;;;;;-2.01;88.48;102896.31;5060408;28;20056;-52
2022/01/11 06:27:37;;;;;;;34.85;16.15;;;;;;;-1.97;88.71;102899.22;5060521;28;20052;-50
2022/01/11 06:30:05;;;;;;;35.92;17.40;;;;;;;-1.94;88.67;102903.63;5064418;28;20071;-51
2022/01/11 06:32:32;;;;;;;31.48;15.88;;;;;;;-1.92;88.79;102905.53;5060975;28;20048;-50
2022/01/11 06:34:59;;;;;;;37.70;15.48;;;;;;;-1.88;88.80;102913.38;5061531;28;20058;-50
2022/01/11 06:37:28;;;;;;;29.80;15.77;;;;;;;-1.85;88.61;102921.25;5058225;28;20052;-48
2022/01/11 06:39:55;;;;;;;33.28;16.27;;;;;;;-1.83;88.35;102924.78;5056775;28;20337;-49
2022/01/11 06:42:22;;;;;;;32.80;15.93;;;;;;;-1.80;88.76;102928.44;5061767;28;20075;-48
2022/01/11 06:44:49;;;;;;;30.10;16.92;;;;;;;-1.77;88.29;102925.25;5058133;28;20049;-50
2022/01/11 06:47:16;;;;;;;34.08;17.67;;;;;;;-1.74;88.30;102930.56;5058164;28;20063;-50
2022/01/11 06:49:44;;;;;;;31.55;16.73;;;;;;;-1.72;88.61;102934.13;5058311;28;20049;-48
2022/01/11 06:52:11;;;;;;;35.63;18.63;;;;;;;-1.69;88.47;102934.34;5059915;28;20482;-49
2022/01/11 06:54:40;;;;;;;35.90;18.10;;;;;;;-1.67;88.16;102937.88;5059362;28;20111;-51
2022/01/11 06:57:08;;;;;;;46.05;18.10;;;;;;;-1.64;88.38;102945.75;5062307;28;20055;-50
2022/01/11 06:59:37;;;;;;;38.75;17.70;;;;;;;-1.60;88.47;102950.31;5056422;28;21456;-48
2022/01/11 07:02:04;;;;;;;35.33;18.55;;;;;;;-1.60;88.35;102953.72;5057856;28;20540;-53
2022/01/11 07:04:31;;;;;;;35.88;17.33;;;;;;;-1.57;88.29;102948.00;5056395;28;20060;-57
2022/01/11 07:06:58;;;;;;;34.90;16.63;;;;;;;-1.55;88.25;102941.41;5052739;28;20102;-59
2022/01/11 07:09:26;;;;;;;39.03;18.52;;;;;;;-1.51;88.17;102953.56;5055824;28;20053;-58
2022/01/11 07:11:54;;;;;;;40.15;19.17;;;;;;;-1.49;87.97;102961.31;5064520;28;20074;-58
2022/01/11 07:14:22;;;;;;;38.80;20.20;;;;;;;-1.46;88.34;102962.44;5057392;28;20121;-58
2022/01/11 07:16:49;;;;;;;38.53;19.50;;;;;;;-1.43;87.98;102965.22;5057434;28;20443;-58
2022/01/11 07:19:16;;;;;;;34.25;17.45;;;;;;;-1.40;88.19;102965.44;5056997;28;20332;-58
2022/01/11 07:21:45;;;;;;;37.20;18.70;;;;;;;-1.37;87.97;102959.69;5059422;28;20067;-55
2022/01/11 07:24:13;;;;;;;39.45;17.70;;;;;;;-1.36;88.02;102969.97;5059093;28;20147;-49
2022/01/11 07:26:41;;;;;;;35.25;17.70;;;;;;;-1.34;88.00;102982.81;5056792;28;20058;-48
2022/01/11 07:29:09;;;;;;;33.38;17.63;;;;;;;-1.33;88.05;102975.31;5057537;28;20052;-46
2022/01/11 07:31:38;;;;;;;39.08;18.73;;;;;;;-1.30;88.19;102974.66;5058672;28;20555;-49
2022/01/11 07:34:06;;;;;;;44.15;19.80;;;;;;;-1.28;88.06;102971.44;5059726;28;20113;-51
2022/01/11 07:36:33;;;;;;;37.45;18.98;;;;;;;-1.23;88.30;102978.53;5056945;28;20105;-49
2022/01/11 07:39:01;;;;;;;48.83;19.13;;;;;;;-1.19;88.37;102978.00;5057436;28;20501;-49
2022/01/11 07:41:28;;;;;;;38.60;17.77;;;;;;;-1.17;88.20;102981.53;5060334;28;20440;-51
2022/01/11 07:43:55;;;;;;;32.97;18.13;;;;;;;-1.13;88.51;102988.63;5054780;28;20393;-57
2022/01/11 07:46:24;;;;;;;33.80;18.75;;;;;;;-1.09;88.68;102988.06;5060208;28;20051;-53
2022/01/11 07:48:52;;;;;;;34.80;17.98;;;;;;;-1.05;88.67;102990.06;5055140;28;21970;-54
2022/01/11 07:51:19;;;;;;;39.33;19.58;;;;;;;-1.02;88.78;102990.34;5057707;28;20079;-50
2022/01/11 07:53:47;;;;;;;39.50;18.90;;;;;;;-0.96;88.62;102993.34;5059073;28;20053;-48
2022/01/11 07:56:14;;;;;;;45.90;19.83;;;;;;;-0.91;88.79;102993.69;5056401;28;20461;-49
2022/01/11 07:58:42;;;;;;;36.40;20.02;;;;;;;-0.88;88.70;102992.25;5055125;28;20056;-51
2022/01/11 08:01:09;;;;;;;42.20;20.42;;;;;;;-0.83;88.67;102995.13;5055366;28;20079;-47
2022/01/11 08:03:38;;;;;;;41.25;19.48;;;;;;;-0.79;88.81;102987.81;5056928;28;20052;-51
2022/01/11 08:06:05;;;;;;;38.90;18.30;;;;;;;-0.73;88.87;102993.34;5056747;28;20048;-47
2022/01/11 08:08:33;;;;;;;39.88;19.52;;;;;;;-0.68;88.86;102997.13;5054332;28;20115;-47
2022/01/11 08:11:02;;;;;;;54.28;24.20;;;;;;;-0.63;88.75;103000.88;5054497;28;20056;-47
2022/01/11 08:13:29;;;;;;;52.78;26.17;;;;;;;-0.57;88.49;103004.66;5058505;28;20515;-54
2022/01/11 08:15:56;;;;;;;46.88;24.05;;;;;;;-0.53;88.67;103006.66;5058101;28;20538;-53
2022/01/11 08:18:24;;;;;;;39.13;21.33;;;;;;;-0.49;88.72;103008.69;5056943;28;20060;-51
2022/01/11 08:20:52;;;;;;;39.03;20.58;;;;;;;-0.44;88.59;103022.63;5055589;28;20052;-51
2022/01/11 08:23:19;;;;;;;38.70;20.08;;;;;;;-0.41;88.66;103022.84;5058096;28;20056;-52
2022/01/11 08:25:46;;;;;;;37.92;21.10;;;;;;;-0.37;88.26;103025.72;5060532;28;20638;-53
2022/01/11 08:28:13;;;;;;;40.90;21.85;;;;;;;-0.33;88.42;103024.28;5058342;28;20513;-55
2022/01/11 08:30:41;;;;;;;39.35;21.95;;;;;;;-0.28;88.25;103028.06;5062824;28;20072;-47
2022/01/11 08:33:09;;;;;;;37.50;20.05;;;;;;;-0.26;88.30;103023.94;5069918;28;20048;-49
2022/01/11 08:35:37;;;;;;;42.85;21.83;;;;;;;-0.21;88.32;103032.81;5059575;28;20049;-50
2022/01/11 08:38:06;;;;;;;45.70;21.73;;;;;;;-0.18;88.17;103033.03;5061298;28;20082;-46
2022/01/11 08:40:33;;;;;;;47.22;24.25;;;;;;;-0.16;87.99;103036.56;5060337;28;20060;-47
2022/01/11 08:43:02;;;;;;;47.42;24.65;;;;;;;-0.13;88.12;103038.47;5063397;28;20427;-46
2022/01/11 08:45:30;;;;;;;49.45;24.83;;;;;;;-0.12;88.23;103038.56;5068844;28;20056;-47
2022/01/11 08:47:57;;;;;;;52.70;26.92;;;;;;;-0.11;88.35;103035.25;5061642;28;20048;-48
2022/01/11 08:50:24;;;;;;;54.17;28.23;;;;;;;-0.11;88.27;103040.34;5059076;28;20060;-49
2022/01/11 08:52:52;;;;;;;56.10;27.50;;;;;;;-0.11;88.50;103044.56;5059041;28;20130;-46
2022/01/11 08:55:21;;;;;;;58.60;27.80;;;;;;;-0.10;88.75;103047.22;5061283;28;20049;-47
2022/01/11 08:57:48;;;;;;;57.65;26.92;;;;;;;-0.07;88.85;103051.66;5059562;28;20482;-45
2022/01/11 09:00:18;;;;;;;60.17;28.20;;;;;;;-0.04;88.85;103062.94;5058729;28;20509;-48
2022/01/11 09:02:46;;;;;;;62.55;28.77;;;;;;;-0.01;88.70;103052.97;5058351;28;20048;-45
2022/01/11 09:05:13;;;;;;;56.58;28.38;;;;;;;0.03;88.62;103058.31;5059261;28;20063;-51
2022/01/11 09:07:40;;;;;;;64.20;29.73;;;;;;;0.04;88.59;103058.41;5057001;28;20060;-48
2022/01/11 09:10:09;;;;;;;56.85;28.35;;;;;;;0.06;88.50;103059.41;5067903;28;20477;-51
2022/01/11 09:12:37;;;;;;;62.30;28.92;;;;;;;0.09;88.31;103058.75;5074017;28;20047;-50
2022/01/11 09:15:06;;;;;;;56.67;29.77;;;;;;;0.12;88.46;103064.06;5067983;28;20440;-54
2022/01/11 09:17:33;;;;;;;54.63;29.00;;;;;;;0.13;88.09;103060.72;5069657;28;20052;-52
2022/01/11 09:20:01;;;;;;;56.47;27.90;;;;;;;0.16;88.08;103060.94;5071460;28;20056;-49
2022/01/11 09:22:28;;;;;;;54.65;27.58;;;;;;;0.19;87.94;103056.06;5071666;28;20110;-48
2022/01/11 09:24:56;;;;;;;61.60;29.13;;;;;;;0.20;87.88;103048.53;5068681;28;20083;-48
2022/01/11 09:27:23;;;;;;;71.82;29.88;;;;;;;0.21;87.88;103054.50;5063845;28;20493;-48
2022/01/11 09:29:52;;;;;;;63.42;30.10;;;;;;;0.21;87.84;103054.50;5065697;28;20064;-50
2022/01/11 09:32:20;;;;;;;53.85;29.35;;;;;;;0.21;87.96;103059.59;5069605;28;20456;-46
2022/01/11 09:34:47;;;;;;;62.75;31.55;;;;;;;0.20;87.84;103050.19;5066453;28;20578;-48
2022/01/11 09:37:14;;;;;;;59.78;28.63;;;;;;;0.21;87.96;103051.97;5069155;28;20057;-47
2022/01/11 09:39:43;;;;;;;58.55;29.52;;;;;;;0.21;87.80;103044.31;5064579;28;20052;-49
2022/01/11 09:42:10;;;;;;;56.15;29.00;;;;;;;0.18;87.96;103033.88;5077512;28;20036;-51
2022/01/11 09:44:39;;;;;;;61.42;31.00;;;;;;;0.17;88.09;103039.75;5069694;28;20053;-48
2022/01/11 09:47:09;;;;;;;64.80;32.45;;;;;;;0.17;88.22;103038.09;5070583;28;20048;-47
2022/01/11 09:49:36;;;;;;;63.47;30.45;;;;;;;0.21;88.38;103039.19;5075024;28;20049;-46
2022/01/11 09:52:07;;;;;;;63.72;30.50;;;;;;;0.28;88.48;103046.50;5072437;28;20101;-46
2022/01/11 09:54:35;;;;;;;62.28;30.95;;;;;;;0.34;88.36;103031.63;5069600;28;20044;-46
2022/01/11 09:57:03;;;;;;;68.43;32.67;;;;;;;0.37;88.22;103036.06;5075835;28;20052;-48
2022/01/11 09:59:31;;;;;;;89.35;37.47;;;;;;;0.38;88.20;103035.25;5066609;28;20494;-56
2022/01/11 10:01:58;;;;;;;94.78;38.53;;;;;;;0.37;88.31;103026.72;5070123;28;20131;-51
2022/01/11 10:04:32;;;;;;;78.18;37.28;;;;;;;0.41;88.52;103028.72;5067952;28;20045;-47
2022/01/11 10:07:01;;;;;;;74.38;36.33;;;;;;;0.46;88.46;103042.66;5070010;28;20048;-52
2022/01/11 10:09:30;;;;;;;85.43;36.67;;;;;;;0.50;88.51;103034.44;5074319;28;20119;-51
2022/01/11 10:11:58;;;;;;;76.47;33.50;;;;;;;0.55;88.27;103028.03;5069258;28;20075;-51
2022/01/11 10:14:29;;;;;;;76.85;34.28;;;;;;;0.60;88.32;103026.66;5074569;28;20040;-55
2022/01/11 10:17:10;;;;;;;88.10;38.08;;;;;;;0.61;88.25;103028.44;5065182;28;20052;-49
2022/01/11 10:19:40;;;;;;;83.45;36.13;;;;;;;0.65;88.29;103032.09;5069170;28;20129;-56
2022/01/11 10:22:09;;;;;;;69.72;33.15;;;;;;;0.70;88.05;103037.50;5066201;28;20654;-55
2022/01/11 10:24:39;;;;;;;59.63;30.15;;;;;;;0.75;88.12;103031.03;5065397;28;20053;-49
2022/01/11 10:27:08;;;;;;;67.07;31.58;;;;;;;0.80;87.92;103034.78;5071440;28;20051;-48
2022/01/11 10:29:40;;;;;;;65.70;31.52;;;;;;;0.83;87.47;103029.88;5077150;28;20052;-49
2022/01/11 10:32:23;;;;;;;60.92;30.88;;;;;;;0.87;87.50;103036.97;5067425;28;20056;-51
2022/01/11 10:34:54;;;;;;;67.47;33.25;;;;;;;0.91;87.24;103031.28;5066670;28;20398;-49
2022/01/11 10:37:33;;;;;;;68.20;33.30;;;;;;;0.96;87.02;103032.47;5069487;28;20051;-52
2022/01/11 10:40:12;;;;;;;61.95;33.55;;;;;;;1.00;86.74;103028.47;5068924;28;20048;-51
2022/01/11 10:42:45;;;;;;;72.47;33.80;;;;;;;1.00;86.12;103031.91;5073462;28;20051;-48
2022/01/11 10:45:15;;;;;;;71.88;33.70;;;;;;;0.98;86.09;103023.25;5073858;28;20456;-51
2022/01/11 10:47:44;;;;;;;69.97;32.17;;;;;;;1.02;85.97;103026.88;5069550;28;20106;-51
2022/01/11 10:50:15;;;;;;;69.72;32.45;;;;;;;1.04;85.82;103021.13;5078895;28;20043;-48
2022/01/11 10:52:43;;;;;;;61.80;31.70;;;;;;;1.09;85.57;103029.97;5078668;28;20056;-49
2022/01/11 10:55:15;;;;;;;78.53;39.33;;;;;;;1.13;85.13;103019.19;5074402;28;20056;-53
2022/01/11 10:57:44;;;;;;;68.28;36.25;;;;;;;1.17;85.11;103016.06;5081662;28;20052;-57
2022/01/11 11:00:23;;;;;;;71.53;36.47;;;;;;;1.19;84.49;103017.03;5077245;28;20051;-53
2022/01/11 11:03:00;;;;;;;76.60;39.63;;;;;;;1.20;84.87;103013.69;5079218;28;20412;-53
2022/01/11 11:05:33;;;;;;;71.95;35.83;;;;;;;1.22;84.67;103022.34;5073629;28;20056;-49
2022/01/11 11:08:09;;;;;;;72.72;37.13;;;;;;;1.22;84.50;103021.47;5067525;28;20055;-46
2022/01/11 11:10:43;;;;;;;71.63;35.28;;;;;;;1.25;84.53;103021.66;5066614;28;20056;-46
2022/01/11 11:13:17;;;;;;;80.47;37.95;;;;;;;1.25;84.53;103017.44;5066045;28;20075;-48
2022/01/11 11:15:44;;;;;;;79.90;37.47;;;;;;;1.29;84.16;103017.63;5077278;28;20496;-50
2022/01/11 11:18:27;;;;;;;92.28;44.28;;;;;;;1.29;84.34;103021.06;5071432;28;20539;-49